Latest Weather Observations for Blackall

IDQ60801

Issued at 12:22 pm EST Sunday 23 September 2018 (issued every 10 minutes, with the page automatically refreshed every 10 minutes)

About weather observations | Map of weather stations | Latest weather observations for QLD | Other Formats
Station Details ID: 036034 Name: BLACKALL AIRPORT Lat: -24.43 Lon: 145.43 Height: 281.3 m
Data from the previous 72 hours. | See also: Recent months at Blackall
Date/Time
EST
Temp
°C
App
Temp
°C
Dew
Point
°C
Rel
Hum
%
Delta-T
°C
Wind Press
QNH
hPa
Press
MSL
hPa
Rain since
9am
mm
Dir  Spd
km/h
Gust
km/h
Spd
kts
Gust
kts
23/12:00pm 26.4 23.3 5.4 26 10.9 S 11 20 6 11 1022.9 1021.9 0.0
23/11:30am 26.2 23.5 5.7 27 10.7 ESE 9 20 5 11 1023.6 1022.6 0.0
23/11:00am 24.7 21.3 6.0 30 9.7 NNE 13 17 7 9 1024.3 1023.4 0.0
23/10:30am 24.1 21.7 6.8 33 9.1 E 9 13 5 7 1024.7 1023.8 0.0
23/10:00am 23.7 21.4 7.3 35 8.6 NE 9 15 5 8 1024.9 1024.0 0.0
23/09:30am 22.6 20.0 7.6 38 7.9 NNE 11 19 6 10 1025.1 1024.2 0.0
23/09:00am 21.4 18.2 6.9 39 7.5 NE 13 20 7 11 1025.1 1024.2 0.0
23/08:30am 20.4 16.5 7.1 42 6.9 NNE 17 24 9 13 1024.9 1024.0 0.0
23/08:00am 19.5 15.2 5.2 39 7.0 NE 17 24 9 13 1024.7 1023.8 0.0
23/07:30am 18.3 14.3 3.0 36 7.2 ENE 13 17 7 9 1024.6 1023.7 0.0
23/07:00am 15.2 11.5 0.2 36 6.4 E 9 11 5 6 1024.3 1023.4 0.0
23/06:30am 13.1 9.7 -0.5 39 5.7 SE 7 9 4 5 1024.1 1023.1 0.0
23/06:00am 12.4 8.6 -0.8 40 5.4 SE 9 11 5 6 1023.8 1022.8 0.0
23/05:30am 13.6 9.4 -0.8 37 6.0 ESE 11 13 6 7 1023.6 1022.6 0.0
23/05:00am 14.7 10.2 -0.2 36 6.3 E 13 17 7 9 1023.1 1022.1 0.0
23/04:30am 13.0 9.2 -0.6 39 5.7 ESE 9 11 5 6 1022.4 1021.4 0.0
23/04:00am 13.0 9.2 -0.6 39 5.6 ESE 9 9 5 5 1022.3 1021.3 0.0
23/03:30am 13.7 10.3 -0.3 38 5.9 SE 7 9 4 5 1022.0 1021.0 0.0
23/03:00am 13.6 10.0 0.6 41 5.6 SE 9 11 5 6 1021.9 1020.9 0.0
23/02:30am 12.7 9.4 -0.2 41 5.4 SSE 7 9 4 5 1022.3 1021.3 0.0
23/02:00am 13.8 10.1 -0.3 38 5.9 SSE 9 9 5 5 1022.5 1021.5 0.0
23/01:30am 15.1 11.5 0.5 37 6.3 SE 9 11 5 6 1022.7 1021.7 0.0
23/01:00am 15.2 11.8 -0.5 34 6.6 SE 7 9 4 5 1023.1 1022.1 0.0
23/12:30am 16.0 12.3 0.2 34 6.9 SE 9 11 5 6 1023.4 1022.4 0.0
23/12:00am 16.8 13.2 0.9 34 7.0 SE 9 9 5 5 1023.4 1022.4 0.0
 
Date/Time
EST
Temp
°C
App
Temp
°C
Dew
Point
°C
Rel
Hum
%
Delta-T
°C
Wind Press
QNH
hPa
Press
MSL
hPa
Rain since
9am
mm
Dir  Spd
km/h
Gust
km/h
Spd
kts
Gust
kts
22/11:30pm 17.0 13.0 0.6 33 7.3 SE 11 11 6 6 1023.5 1022.5 0.0
22/11:00pm 18.1 14.6 1.2 32 7.6 SE 9 11 5 6 1023.5 1022.5 0.0
22/10:30pm 18.7 15.2 1.2 31 8.0 SE 9 11 5 6 1023.5 1022.5 0.0
22/10:00pm 19.4 15.9 1.4 30 8.2 SE 9 11 5 6 1023.3 1022.3 0.0
22/09:30pm 21.3 18.3 2.1 28 9.1 ESE 7 9 4 5 1023.4 1022.4 0.0
22/09:00pm 22.2 18.4 1.8 26 9.6 ESE 11 17 6 9 1023.1 1022.1 0.0
22/08:30pm 21.1 17.3 1.9 28 9.0 SSE 11 13 6 7 1022.9 1021.9 0.0
22/08:00pm 21.6 18.2 1.8 27 9.3 ESE 9 11 5 6 1022.6 1021.6 0.0
22/07:30pm 22.7 19.3 1.7 25 9.9 SSE 9 9 5 5 1022.5 1021.5 0.0
22/07:00pm 23.8 20.4 2.0 24 10.4 SE 9 11 5 6 1022.2 1021.2 0.0
22/06:30pm 24.8 21.1 2.3 23 10.9 SE 11 20 6 11 1021.9 1020.9 0.0
22/06:00pm 25.8 22.0 3.7 24 11.1 SE 13 19 7 10 1021.5 1020.6 0.0
22/05:30pm 26.6 22.4 3.8 23 11.5 SE 15 20 8 11 1021.4 1020.5 0.0
22/05:00pm 27.1 23.0 4.2 23 11.7 ESE 15 20 8 11 1021.1 1020.1 0.0
22/04:30pm 26.6 22.9 4.4 24 11.3 E 13 22 7 12 1021.1 1020.1 0.0
22/04:00pm 26.9 22.5 4.6 24 11.4 SE 17 28 9 15 1021.2 1020.3 0.0
22/03:30pm 27.1 22.7 4.8 24 11.5 SSE 17 26 9 14 1021.3 1020.4 0.0
22/03:00pm 26.4 23.5 4.8 25 11.1 ESE 9 22 5 12 1021.9 1020.9 0.0
22/02:30pm 26.4 23.7 5.4 26 10.9 E 9 22 5 12 1022.1 1021.1 0.0
22/02:00pm 25.9 21.9 4.9 26 10.7 E 15 26 8 14 1022.6 1021.6 0.0
22/01:30pm 26.0 22.2 3.9 24 11.1 E 13 26 7 14 1022.9 1021.9 0.0
22/01:00pm 25.7 21.2 4.2 25 10.8 E 17 24 9 13 1023.5 1022.5 0.0
22/12:30pm 24.8 19.8 4.5 27 10.3 ENE 20 32 11 17 1023.9 1022.9 0.0
22/12:00pm 25.3 20.2 6.0 29 10.0 E 22 32 12 17 1024.4 1023.5 0.0
22/11:30am 23.4 19.8 6.7 34 8.7 NE 15 24 8 13 1025.4 1024.4 0.0
22/11:00am 22.8 18.9 7.0 36 8.2 NNE 17 28 9 15 1026.0 1025.0 0.0
22/10:30am 24.1 19.3 7.3 34 8.9 ENE 22 32 12 17 1026.2 1025.2 0.0
22/10:00am 23.1 17.9 7.2 36 8.3 NNE 24 30 13 16 1026.3 1025.3 0.0
22/09:30am 22.2 18.0 7.6 39 7.7 NE 19 32 10 17 1026.6 1025.6 0.0
22/09:00am 20.8 15.6 7.4 42 6.9 NNE 24 35 13 19 1026.3 1025.3 0.0
22/08:30am 18.5 13.3 5.4 42 6.5 NE 22 33 12 18 1026.3 1025.3 0.0
22/08:00am 17.7 14.1 3.2 38 6.8 E 11 17 6 9 1026.3 1025.3 0.0
22/07:30am 16.1 12.5 0.7 35 6.8 E 9 15 5 8 1026.1 1025.1 0.0
22/07:00am 13.7 9.6 -2.7 32 6.5 ESE 9 13 5 7 1025.4 1024.4 0.0
22/06:30am 11.9 7.2 -4.7 31 6.2 ESE 11 13 6 7 1024.9 1024.0 0.0
22/06:00am 11.3 6.9 -5.6 30 6.1 E 9 11 5 6 1024.5 1023.6 0.0
22/05:30am 11.8 7.3 -7.1 26 6.7 E 9 11 5 6 1023.9 1022.9 0.0
22/05:00am 13.3 8.0 -6.8 24 7.3 E 13 17 7 9 1023.5 1022.5 0.0
22/04:30am 13.8 7.8 -6.9 23 7.5 E 17 22 9 12 1023.1 1022.1 0.0
22/04:00am 13.2 7.0 -9.2 20 7.7 E 17 20 9 11 1022.9 1021.9 0.0
22/03:30am 11.9 6.8 -9.7 21 7.2 ESE 11 15 6 8 1022.9 1021.9 0.0
22/03:00am 11.6 6.5 -9.9 21 7.1 ESE 11 13 6 7 1022.6 1021.6 0.0
22/02:30am 12.5 7.7 -10.5 19 7.6 SE 9 13 5 7 1022.7 1021.7 0.0
22/02:00am 14.0 8.4 -10.6 17 8.2 SE 13 15 7 8 1022.9 1021.9 0.0
22/01:30am 14.3 8.7 -10.4 17 8.4 SE 13 15 7 8 1023.1 1022.1 0.0
22/01:00am 14.8 9.2 -10.7 16 8.6 ESE 13 13 7 7 1023.2 1022.2 0.0
22/12:30am 15.6 10.0 -10.9 15 9.0 SE 13 17 7 9 1023.3 1022.3 0.0
22/12:00am 16.6 10.6 -11.9 13 9.6 ESE 15 17 8 9 1023.3 1022.3 0.0
 
Date/Time
EST
Temp
°C
App
Temp
°C
Dew
Point
°C
Rel
Hum
%
Delta-T
°C
Wind Press
QNH
hPa
Press
MSL
hPa
Rain since
9am
mm
Dir  Spd
km/h
Gust
km/h
Spd
kts
Gust
kts
21/11:30pm 17.5 11.4 -12.2 12 10.1 ESE 15 19 8 10 1023.3 1022.3 0.0
21/11:00pm 18.6 12.2 -12.4 11 10.6 ESE 17 24 9 13 1023.1 1022.1 0.0
21/10:30pm 18.9 12.1 -12.2 11 10.8 E 19 24 10 13 1023.0 1022.0 0.0
21/10:00pm 16.9 12.0 -12.6 12 9.8 ESE 9 13 5 7 1023.1 1022.1 0.0
21/09:30pm 17.5 12.5 -14.4 10 10.4 SE 9 13 5 7 1023.1 1022.1 0.0
21/09:00pm 18.5 13.1 -13.6 10 10.7 SSE 11 13 6 7 1022.8 1021.8 0.0
21/08:30pm 19.5 14.1 -14.2 9 11.3 SSE 11 15 6 8 1022.5 1021.5 0.0
21/08:00pm 20.6 15.2 -14.8 8 11.8 SSE 11 17 6 9 1022.0 1021.0 0.0
21/07:30pm 21.4 16.0 -14.2 8 12.2 SSE 11 15 6 8 1021.7 1020.7 0.0
21/07:00pm 22.3 16.9 -13.5 8 12.6 SSE 11 13 6 7 1021.1 1020.1 0.0
21/06:30pm 23.6 18.2 -14.2 7 13.3 SSE 11 15 6 8 1020.6 1019.6 0.0
21/06:00pm 25.3 18.3 -14.8 6 14.2 SE 19 26 10 14 1020.3 1019.3 0.0
21/05:30pm 26.3 19.8 -14.1 6 14.7 SE 17 24 9 13 1020.0 1019.0 0.0
21/05:00pm 26.8 19.7 -13.7 6 14.9 SE 20 30 11 16 1019.9 1018.9 0.0
21/04:30pm 26.8 19.7 -13.7 6 14.9 SSE 20 32 11 17 1019.7 1018.7 0.0
21/04:00pm 27.5 20.6 -13.2 6 15.2 SE 19 26 10 14 1019.5 1018.5 0.0
21/03:30pm 27.0 19.4 -15.8 5 15.3 SE 22 32 12 17 1019.6 1018.6 0.0
21/03:00pm 27.0 19.9 -13.6 6 15.0 SE 20 32 11 17 1019.9 1018.9 0.0
21/02:30pm 27.2 20.3 -13.4 6 15.1 SE 19 30 10 16 1020.0 1019.0 0.0
21/02:00pm 26.3 18.8 -14.1 6 14.7 ESE 22 32 12 17 1020.5 1019.5 0.0
21/01:30pm 25.3 18.2 -12.9 7 14.1 ESE 20 32 11 17 1021.0 1020.0 0.0
21/01:00pm 24.8 17.4 -11.7 8 13.6 ESE 22 32 12 17 1021.8 1020.8 0.0
21/12:30pm 24.5 17.6 -10.4 9 13.3 SE 20 33 11 18 1022.4 1021.4 0.0
21/12:00pm 24.0 17.1 -10.8 9 13.1 SE 20 32 11 17 1022.7 1021.7 0.0
21/11:30am 22.6 14.6 -10.5 10 12.4 SE 26 39 14 21 1023.3 1022.3 0.0
21/11:00am 22.9 15.0 -9.1 11 12.3 ESE 26 39 14 21 1023.6 1022.6 0.0
21/10:30am 21.5 13.3 -8.0 13 11.4 SE 28 43 15 23 1024.0 1023.0 0.0
21/10:00am 20.3 12.0 -9.0 13 10.9 SE 28 41 15 22 1024.2 1023.2 0.0
21/09:30am 20.1 11.2 -7.3 15 10.6 ESE 32 43 17 23 1024.5 1023.6 0.0
21/09:00am 19.0 9.9 -7.4 16 10.0 ESE 33 48 18 26 1024.4 1023.5 0.0
21/08:30am 18.1 9.2 -7.3 17 9.6 ESE 32 50 17 27 1024.3 1023.4 0.0
21/08:07am 17.0 8.8 -7.5 18 9.1 ESE 28 46 15 25 1024.0 1023.0 0.0
21/08:00am 16.9 7.8 -6.8 19 8.9 ESE 33 48 18 26 1024.0 1023.0 0.0
21/07:30am 15.8 8.4 -7.1 20 8.5 ESE 24 35 13 19 1023.7 1022.7 0.0
21/07:00am 14.6 8.2 -6.8 22 7.8 SE 19 24 10 13 1023.2 1022.2 0.0
21/06:30am 11.4 6.5 -6.9 27 6.5 ESE 11 15 6 8 1023.0 1022.0 0.0
21/06:00am 10.6 6.4 -7.6 27 6.2 ESE 7 11 4 6 1022.4 1021.4 0.0
21/05:30am 11.4 6.8 -7.9 25 6.7 SE 9 13 5 7 1021.8 1020.8 0.0
21/05:00am 12.5 6.8 -7.5 24 7.0 SE 15 19 8 10 1021.4 1020.5 0.0
21/04:30am 12.2 6.9 -7.7 24 7.0 SE 13 17 7 9 1021.4 1020.5 0.0
21/04:00am 13.1 7.8 -7.5 23 7.3 SE 13 19 7 10 1021.1 1020.1 0.0
21/03:30am 12.8 7.5 -7.8 23 7.3 SE 13 17 7 9 1021.1 1020.1 0.0
21/03:00am 12.5 7.8 -8.6 22 7.2 SE 9 11 5 6 1021.4 1020.5 0.0
21/02:30am 13.8 8.4 -8.1 21 7.8 SSE 13 17 7 9 1021.3 1020.4 0.0
21/02:00am 14.5 9.1 -8.2 20 8.1 SE 13 19 7 10 1021.3 1020.4 0.0
21/01:30am 14.7 8.9 -8.7 19 8.3 SE 15 20 8 11 1021.3 1020.4 0.0
21/01:00am 14.8 9.0 -8.6 19 8.3 SSE 15 20 8 11 1021.4 1020.5 0.0
21/12:30am 15.2 9.0 -8.9 18 8.5 SSE 17 22 9 12 1021.7 1020.7 0.0
21/12:00am 16.3 9.5 -9.5 16 9.1 SSE 20 28 11 15 1021.7 1020.7 0.0
 
Date/Time
EST
Temp
°C
App
Temp
°C
Dew
Point
°C
Rel
Hum
%
Delta-T
°C
Wind Press
QNH
hPa
Press
MSL
hPa
Rain since
9am
mm
Dir  Spd
km/h
Gust
km/h
Spd
kts
Gust
kts
20/11:30pm 17.0 10.4 -9.8 15 9.5 SSE 19 26 10 14 1021.9 1020.9 0.0
20/11:00pm 17.6 11.0 -9.3 15 9.7 SSE 19 28 10 15 1021.8 1020.8 0.0
20/10:30pm 17.5 10.8 -10.3 14 9.8 SSE 19 26 10 14 1021.8 1020.8 0.0
20/10:00pm 17.6 11.6 -11.1 13 10.0 SSE 15 22 8 12 1021.5 1020.6 0.0
20/09:30pm 18.0 12.0 -11.8 12 10.3 SSE 15 22 8 12 1021.3 1020.4 0.0
20/09:00pm 18.3 12.6 -12.6 11 10.5 SE 13 19 7 10 1021.1 1020.1 0.0
20/08:30pm 19.5 13.8 -12.9 10 11.1 SSE 13 19 7 10 1020.6 1019.6 0.0
20/08:00pm 19.6 13.9 -12.8 10 11.1 SSE 13 17 7 9 1020.2 1019.2 0.0
20/07:30pm 20.3 14.9 -13.6 9 11.6 SSE 11 13 6 7 1019.7 1018.7 0.0
20/07:00pm 21.3 16.0 -12.8 9 12.0 SSE 11 15 6 8 1019.3 1018.3 0.0
20/06:30pm 22.7 17.3 -13.2 8 12.8 SSE 11 17 6 9 1018.9 1017.9 0.0
20/06:00pm 23.9 17.7 -14.0 7 13.4 S 15 24 8 13 1018.4 1017.4 0.0
20/05:30pm 24.9 17.8 -13.2 7 13.9 S 20 32 11 17 1018.1 1017.1 0.0
20/05:00pm 25.6 18.5 -14.6 6 14.4 S 20 30 11 16 1017.6 1016.6 0.0
20/04:30pm 25.9 18.4 -14.4 6 14.5 S 22 32 12 17 1017.4 1016.4 0.0
20/04:00pm 26.0 18.2 -12.4 7 14.4 S 24 33 13 18 1017.2 1016.2 0.0
20/03:30pm 26.6 20.2 -12.0 7 14.7 SSE 17 28 9 15 1017.0 1016.0 0.0
20/03:00pm 26.4 19.6 -12.1 7 14.5 S 19 32 10 17 1017.1 1016.1 0.0
20/02:30pm 25.8 18.8 -12.6 7 14.3 SSE 20 32 11 17 1017.5 1016.5 0.0
20/02:00pm 25.8 18.5 -10.9 8 14.1 SSE 22 32 12 17 1017.9 1016.8 0.0
20/01:30pm 25.5 18.6 -11.1 8 14.0 SSE 20 35 11 19 1018.3 1017.3 0.0
20/01:00pm 24.9 17.2 -11.6 8 13.7 SSE 24 33 13 18 1018.6 1017.6 0.0
20/12:30pm 24.7 17.2 -8.9 10 13.2 S 24 35 13 19 1019.1 1018.1 0.0

Other Formats:

Comma delimited format used in spreadsheet applications
http://www.bom.gov.au/fwo/IDQ60801/IDQ60801.95351.axf

JavaScript Object Notation format (JSON) in row-major order
http://www.bom.gov.au/fwo/IDQ60801/IDQ60801.95351.json